Time;durP1;ratioP1;P1;durP2;ratioP2;P2;SDS_P1;SDS_P2;PMS_P1;PMS_P2;Temp;Humidity;BMP_temperature;BMP_pressure;BME280_temperature;BME280_humidity;BME280_pressure;Samples;Min_cycle;Max_cycle;Signal;HPM_P1;HPM_P2
2022/05/02 00:02:10;;;;;;;6.55;3.50;;;;;;;11.31;77.14;100476.81;5589551;31;32794;-64
2022/05/02 00:05:13;;;;;;;6.82;3.50;;;;;;;11.25;76.58;100471.34;5590074;31;35273;-64
2022/05/02 00:08:16;;;;;;;5.40;3.28;;;;;;;11.20;77.02;100473.69;5589256;31;32319;-64
2022/05/02 00:11:19;;;;;;;4.95;3.60;;;;;;;11.23;76.75;100470.72;5590096;31;33881;-63
2022/05/02 00:14:21;;;;;;;6.85;3.55;;;;;;;11.37;75.21;100469.16;5590033;31;34650;-64
2022/05/02 00:17:56;;;;;;;6.30;3.90;;;;;;;11.41;76.40;100463.34;5589961;31;34351;-64
2022/05/02 00:20:47;;;;;;;5.78;3.33;;;;;;;11.30;76.63;100467.19;5590540;31;34229;-64
2022/05/02 00:23:50;;;;;;;5.03;3.60;;;;;;;11.25;76.69;100466.03;5589213;31;34006;-64
2022/05/02 00:26:52;;;;;;;5.97;3.80;;;;;;;11.25;77.41;100461.56;5589961;31;34157;-64
2022/05/02 00:29:55;;;;;;;8.32;3.83;;;;;;;11.31;77.74;100452.09;5589986;31;35124;-64
2022/05/02 00:32:58;;;;;;;6.53;3.70;;;;;;;11.34;76.99;100472.97;5588876;31;32802;-64
2022/05/02 00:36:01;;;;;;;6.70;3.87;;;;;;;11.33;77.27;100461.53;5589831;31;33933;-64
2022/05/02 00:39:03;;;;;;;6.18;3.70;;;;;;;11.25;77.18;100466.03;5589835;31;33925;-64
2022/05/02 00:42:06;;;;;;;8.20;4.25;;;;;;;11.12;78.18;100465.75;5588860;31;33685;-64
2022/05/02 00:45:11;;;;;;;5.95;3.42;;;;;;;11.09;80.16;100466.06;5589845;31;34622;-64
2022/05/02 00:48:14;;;;;;;6.82;3.62;;;;;;;11.04;79.98;100463.06;5589946;31;34668;-64
2022/05/02 00:51:18;;;;;;;5.87;4.18;;;;;;;11.01;80.95;100463.44;5589889;31;34258;-64
2022/05/02 00:54:22;;;;;;;6.55;4.10;;;;;;;11.17;80.72;100468.72;5589720;31;33938;-64
2022/05/02 00:57:25;;;;;;;8.13;3.90;;;;;;;11.20;80.55;100471.84;5589554;31;34057;-64
2022/05/02 01:00:29;;;;;;;5.10;3.90;;;;;;;11.26;80.42;100475.66;5589759;31;33946;-64
2022/05/02 01:03:34;;;;;;;7.12;3.87;;;;;;;11.26;81.06;100470.34;5588982;31;32292;-64
2022/05/02 01:10:00;;;;;;;6.10;4.15;;;;;;;11.08;82.61;100472.38;5589563;31;35190;-64
2022/05/02 01:13:02;;;;;;;7.40;4.30;;;;;;;11.01;83.11;100469.56;5589408;31;34059;-64
2022/05/02 01:16:15;;;;;;;6.00;4.10;;;;;;;11.01;83.94;100472.22;5589465;31;34595;-64
2022/05/02 01:19:18;;;;;;;4.82;3.83;;;;;;;11.14;82.68;100469.88;5589491;31;34116;-64
2022/05/02 01:22:21;;;;;;;5.95;3.97;;;;;;;11.21;83.02;100470.87;5588587;31;32537;-64
2022/05/02 01:25:24;;;;;;;5.60;4.10;;;;;;;11.34;82.50;100463.19;5588873;31;32612;-63
2022/05/02 01:28:28;;;;;;;5.78;4.35;;;;;;;11.35;82.36;100469.31;5589290;31;34919;-64
2022/05/02 01:31:31;;;;;;;8.07;4.47;;;;;;;11.39;82.47;100465.31;5588871;31;32506;-64
2022/05/02 01:34:35;;;;;;;6.20;4.40;;;;;;;11.42;81.67;100464.19;5588633;31;32488;-64
2022/05/02 01:37:38;;;;;;;6.75;4.43;;;;;;;11.33;82.00;100458.88;5589200;31;33965;-64
2022/05/02 01:40:41;;;;;;;8.45;4.72;;;;;;;11.38;81.82;100463.66;5589304;31;34301;-64
2022/05/02 01:43:44;;;;;;;8.35;4.57;;;;;;;11.34;82.66;100460.53;5588120;31;34672;-64
2022/05/02 01:46:47;;;;;;;6.62;4.30;;;;;;;11.50;81.86;100454.34;5589088;31;33921;-64
2022/05/02 01:49:50;;;;;;;7.97;4.30;;;;;;;11.48;81.58;100455.50;5588482;31;33870;-64
2022/05/02 01:52:52;;;;;;;6.85;4.20;;;;;;;11.48;82.03;100458.97;5588414;31;33392;-64
2022/05/02 01:55:55;;;;;;;7.45;4.60;;;;;;;11.53;81.53;100456.66;5588424;31;33669;-64
2022/05/02 01:58:58;;;;;;;8.10;4.62;;;;;;;11.53;80.75;100461.13;5588943;31;33976;-64
2022/05/02 02:02:01;;;;;;;7.40;4.30;;;;;;;11.62;79.24;100460.09;5588171;31;33939;-64
2022/05/02 02:08:26;;;;;;;5.80;4.28;;;;;;;11.35;80.79;100485.25;5588768;31;34096;-64
2022/05/02 02:11:29;;;;;;;5.28;4.25;;;;;;;11.32;80.76;100489.09;5588881;31;35236;-64
2022/05/02 02:14:32;;;;;;;5.43;4.20;;;;;;;11.31;82.40;100479.47;5588621;31;33949;-64
2022/05/02 02:17:35;;;;;;;5.37;3.85;;;;;;;11.47;81.31;100472.47;5588460;31;34416;-64
2022/05/02 02:20:39;;;;;;;5.68;4.03;;;;;;;11.46;77.46;100473.44;5588589;31;34581;-64
2022/05/02 02:23:43;;;;;;;5.82;3.78;;;;;;;11.43;76.94;100479.91;5587773;31;32716;-64
2022/05/02 02:26:46;;;;;;;6.35;3.90;;;;;;;11.46;77.12;100474.28;5588475;31;34204;-64
2022/05/02 02:29:49;;;;;;;5.43;3.90;;;;;;;11.45;78.00;100467.31;5588231;31;34146;-64
2022/05/02 02:32:52;;;;;;;6.20;4.05;;;;;;;11.55;78.41;100465.28;5584988;31;108269;-64
2022/05/02 02:35:55;;;;;;;7.62;4.28;;;;;;;11.60;76.76;100468.25;5588246;31;34018;-64
2022/05/02 02:38:57;;;;;;;5.47;3.80;;;;;;;11.60;77.42;100473.56;5587254;31;33300;-64
2022/05/02 02:42:00;;;;;;;7.40;4.22;;;;;;;11.65;78.03;100470.38;5587841;31;34573;-64
2022/05/02 02:45:03;;;;;;;6.72;4.20;;;;;;;11.62;78.16;100468.88;5587874;31;34608;-64
2022/05/02 02:48:07;;;;;;;6.03;3.55;;;;;;;11.67;78.37;100468.38;5588002;31;34117;-64
2022/05/02 02:51:09;;;;;;;6.30;3.78;;;;;;;11.66;78.46;100469.41;5588382;31;34006;-64
2022/05/02 02:54:12;;;;;;;6.30;4.00;;;;;;;11.64;78.98;100480.19;5588785;31;34574;-64
2022/05/02 02:57:15;;;;;;;5.45;3.97;;;;;;;11.62;80.49;100486.66;5590117;31;35171;-64
2022/05/02 03:00:21;;;;;;;7.55;4.15;;;;;;;11.55;82.46;100472.41;5590047;31;32832;-64
2022/05/02 03:03:24;;;;;;;7.25;4.05;;;;;;;11.53;84.42;100472.59;5590902;31;34600;-64
2022/05/02 03:06:27;;;;;;;6.45;4.50;;;;;;;11.55;82.75;100473.25;5590756;31;34477;-64
2022/05/02 03:09:30;;;;;;;5.78;4.20;;;;;;;11.57;85.14;100481.06;5589702;31;32703;-64
2022/05/02 03:12:33;;;;;;;7.93;4.80;;;;;;;11.56;83.32;100469.59;5590519;31;35178;-64
2022/05/02 03:15:36;;;;;;;8.60;4.80;;;;;;;11.44;85.57;100460.34;5590612;31;34046;-64
2022/05/02 03:18:43;;;;;;;8.20;4.53;;;;;;;11.49;88.93;100468.63;5590853;31;33923;-64
2022/05/02 03:21:46;;;;;;;6.70;4.45;;;;;;;11.47;90.32;100467.97;5590505;31;33880;-64
2022/05/02 03:24:49;;;;;;;6.22;4.93;;;;;;;11.49;90.11;100467.78;5589533;31;32740;-64
2022/05/02 03:27:52;;;;;;;6.78;4.80;;;;;;;11.62;92.84;100468.88;5590549;31;33926;-64
2022/05/02 03:30:55;;;;;;;5.62;4.50;;;;;;;11.66;91.51;100469.41;5590660;31;34065;-64
2022/05/02 03:33:57;;;;;;;6.95;4.70;;;;;;;11.67;91.80;100463.87;5590400;31;33945;-64
2022/05/02 03:37:00;;;;;;;7.50;4.78;;;;;;;11.72;91.59;100458.06;5590322;31;35173;-64
2022/05/02 03:40:03;;;;;;;7.75;4.60;;;;;;;11.75;90.39;100460.41;5590353;31;33980;-64
2022/05/02 03:43:06;;;;;;;6.10;4.15;;;;;;;11.93;87.24;100463.63;5589560;31;33149;-64
2022/05/02 03:46:09;;;;;;;5.35;4.15;;;;;;;11.80;88.36;100466.03;5589132;31;32788;-64
2022/05/02 03:49:12;;;;;;;6.62;4.50;;;;;;;11.69;89.24;100469.88;5590217;31;34645;-63
2022/05/02 03:52:14;;;;;;;6.82;4.55;;;;;;;11.77;88.89;100459.22;5590208;31;34286;-63
2022/05/02 03:55:17;;;;;;;7.68;4.90;;;;;;;11.64;87.95;100460.75;5590139;31;33911;-63
2022/05/02 03:58:20;;;;;;;7.43;4.75;;;;;;;11.65;88.33;100460.59;5589283;31;35192;-63
2022/05/02 04:01:23;;;;;;;8.65;4.25;;;;;;;11.66;86.72;100458.78;5589017;31;33734;-63
2022/05/02 04:04:26;;;;;;;7.60;4.20;;;;;;;11.70;86.55;100460.91;5590060;31;34587;-63
2022/05/02 04:07:29;;;;;;;8.40;4.75;;;;;;;11.79;86.25;100456.41;5589324;31;33970;-63
2022/05/02 04:10:31;;;;;;;14.52;5.25;;;;;;;12.06;85.89;100455.09;5590026;31;34657;-63
2022/05/02 04:13:34;;;;;;;10.75;4.53;;;;;;;12.02;85.59;100462.59;5590018;31;34567;-63
2022/05/02 04:16:37;;;;;;;6.43;4.50;;;;;;;12.01;85.70;100460.09;5590330;31;33895;-63
2022/05/02 04:19:39;;;;;;;6.25;4.32;;;;;;;11.89;84.85;100458.84;5588899;31;32623;-63
2022/05/02 04:22:42;;;;;;;8.38;4.37;;;;;;;12.11;83.90;100463.38;5589217;31;32471;-64
2022/05/02 04:25:45;;;;;;;7.82;4.93;;;;;;;12.00;84.34;100463.78;5589911;31;34184;-63
2022/05/02 04:28:47;;;;;;;8.98;4.55;;;;;;;11.91;85.13;100470.16;5589613;31;33956;-63
2022/05/02 04:31:50;;;;;;;9.90;4.75;;;;;;;12.04;84.54;100467.75;5588723;31;34440;-63
2022/05/02 04:34:55;;;;;;;9.25;4.72;;;;;;;11.98;84.97;100474.59;5589863;31;33905;-63
2022/05/02 04:38:00;;;;;;;6.25;4.37;;;;;;;12.03;85.11;100468.75;5589546;31;34597;-63
2022/05/02 04:41:03;;;;;;;8.07;5.10;;;;;;;11.93;82.92;100468.97;5589682;31;33932;-63
2022/05/02 04:44:05;;;;;;;7.68;5.05;;;;;;;11.93;82.49;100468.97;5588809;31;33352;-64
2022/05/02 04:47:08;;;;;;;8.73;4.65;;;;;;;12.02;80.87;100475.88;5588510;31;33923;-64
2022/05/02 04:50:10;;;;;;;8.00;5.00;;;;;;;12.13;80.24;100472.00;5589789;31;34108;-64
2022/05/02 04:53:13;;;;;;;7.97;4.72;;;;;;;12.22;79.82;100481.59;5589693;31;34380;-63
2022/05/02 04:56:16;;;;;;;7.18;5.20;;;;;;;12.52;79.35;100493.19;5589895;31;34187;-64
2022/05/02 04:59:19;;;;;;;7.93;4.97;;;;;;;12.62;78.76;100494.63;5588456;31;32482;-64
2022/05/02 05:02:21;;;;;;;6.72;4.90;;;;;;;12.78;79.26;100495.50;5589478;31;34841;-64
2022/05/02 05:05:24;;;;;;;8.05;4.75;;;;;;;12.97;76.77;100495.00;5589504;31;35235;-63
2022/05/02 05:08:27;;;;;;;7.53;4.80;;;;;;;12.90;76.03;100492.22;5588306;31;32769;-64
2022/05/02 05:11:52;;;;;;;9.57;4.47;;;;;;;13.01;75.86;100488.31;5588446;31;33058;-64
2022/05/02 05:18:41;;;;;;;8.70;4.65;;;;;;;13.26;74.62;100495.09;5589495;31;33858;-64
2022/05/02 05:21:55;;;;;;;7.65;4.47;;;;;;;13.21;73.97;100493.97;5588638;31;32477;-63
2022/05/02 05:25:17;;;;;;;7.30;4.50;;;;;;;13.09;72.25;100501.53;5588489;31;33596;-64
2022/05/02 05:28:38;;;;;;;6.10;4.28;;;;;;;13.22;70.98;100488.44;5588319;31;32689;-64
2022/05/02 05:31:41;;;;;;;7.70;4.57;;;;;;;13.39;70.37;100492.59;5588364;31;33080;-67
2022/05/02 05:35:19;;;;;;;5.62;3.83;;;;;;;13.45;70.52;100489.22;5587607;31;32362;-64
2022/05/02 05:38:37;;;;;;;9.23;4.78;;;;;;;13.44;69.82;100490.22;5554483;31;33726;-64
2022/05/02 05:42:01;;;;;;;5.75;4.45;;;;;;;13.75;68.91;100494.50;5588928;31;34051;-64
2022/05/02 05:45:23;;;;;;;6.45;4.50;;;;;;;14.08;67.66;100489.59;5587518;31;32538;-64
2022/05/02 05:48:50;;;;;;;8.63;4.62;;;;;;;14.29;66.11;100486.94;5587922;31;34193;-65
2022/05/02 05:52:10;;;;;;;7.05;4.60;;;;;;;14.27;67.36;100491.66;5588086;31;33927;-64
2022/05/02 05:55:50;;;;;;;6.15;4.25;;;;;;;13.96;70.25;100491.09;5587459;31;32379;-65
2022/05/02 05:58:58;;;;;;;7.65;4.30;;;;;;;13.97;69.72;100488.25;5586718;31;33979;-64
2022/05/02 06:02:18;;;;;;;7.12;4.12;;;;;;;14.15;68.70;100485.97;5587944;31;32316;-64
2022/05/02 06:05:22;;;;;;;10.80;4.32;;;;;;;14.29;68.04;100489.62;5587902;31;32486;-64
2022/05/02 06:08:26;;;;;;;5.45;3.75;;;;;;;14.17;65.94;100488.47;5587601;31;33364;-64
2022/05/02 06:11:29;;;;;;;6.18;4.37;;;;;;;13.88;67.51;100497.38;5587144;31;34060;-64
2022/05/02 06:18:27;;;;;;;8.15;4.20;;;;;;;14.20;66.54;100496.91;5587538;31;32355;-64
2022/05/02 06:21:28;;;;;;;7.28;3.55;;;;;;;14.39;66.16;100497.34;5587009;31;32866;-64
2022/05/02 06:24:34;;;;;;;6.70;4.32;;;;;;;14.82;63.81;100495.50;5587337;31;32447;-64
2022/05/02 06:27:40;;;;;;;6.47;3.80;;;;;;;14.93;63.71;100508.34;5586552;31;32955;-64
2022/05/02 06:30:44;;;;;;;8.82;4.22;;;;;;;15.16;62.72;100506.25;5589262;31;32690;-64
2022/05/02 06:33:49;;;;;;;7.05;4.00;;;;;;;15.36;63.14;100509.91;5588848;31;33770;-64
2022/05/02 06:37:31;;;;;;;9.27;4.22;;;;;;;15.26;62.06;100505.91;5590318;31;34062;-64
2022/05/02 06:40:49;;;;;;;7.25;4.25;;;;;;;15.62;60.68;100511.94;5590375;31;34091;-64
2022/05/02 06:44:04;;;;;;;11.23;4.32;;;;;;;15.92;60.12;100518.69;5590679;31;33882;-64
2022/05/02 06:47:40;;;;;;;7.57;4.70;;;;;;;16.51;58.29;100510.00;5590758;31;34643;-64
2022/05/02 06:50:47;;;;;;;5.65;3.67;;;;;;;17.07;55.38;100512.38;5589287;31;32531;-64
2022/05/02 06:54:08;;;;;;;20.67;3.58;;;;;;;16.93;52.83;100519.59;5589991;31;32848;-64
2022/05/02 06:57:53;;;;;;;6.97;3.55;;;;;;;17.20;52.67;100507.00;5589733;31;32731;-64
2022/05/02 07:01:04;;;;;;;5.70;3.25;;;;;;;17.20;50.57;100509.69;5577721;31;34262;-64
2022/05/02 07:04:29;;;;;;;4.20;2.67;;;;;;;17.37;50.84;100505.56;5589978;31;34593;-64
2022/05/02 07:07:51;;;;;;;5.93;2.92;;;;;;;17.16;51.48;100511.13;5589785;31;33715;-64
2022/05/02 07:11:04;;;;;;;4.40;2.60;;;;;;;17.36;51.14;100517.31;5589701;31;33944;-64
2022/05/02 07:14:31;;;;;;;5.37;2.70;;;;;;;17.46;50.54;100514.19;5576596;31;32672;-64
2022/05/02 07:17:43;;;;;;;3.60;2.55;;;;;;;17.85;50.47;100514.13;5589752;31;33064;-64
2022/05/02 07:21:07;;;;;;;6.55;3.00;;;;;;;18.38;48.86;100520.09;5590620;31;33890;-64
2022/05/02 07:24:35;;;;;;;4.22;3.05;;;;;;;18.66;48.89;100525.09;5589207;31;33554;-64
2022/05/02 07:27:56;;;;;;;4.10;2.92;;;;;;;18.81;48.64;100522.09;5590398;31;34692;-64
2022/05/02 07:31:00;;;;;;;4.47;2.95;;;;;;;18.92;48.58;100522.25;5590352;31;33956;-64
2022/05/02 07:34:03;;;;;;;4.82;2.67;;;;;;;18.81;48.72;100522.94;5589115;31;33113;-64
2022/05/02 07:37:06;;;;;;;6.05;2.50;;;;;;;19.20;48.41;100519.09;5590108;31;34144;-64
2022/05/02 07:40:14;;;;;;;3.70;2.53;;;;;;;19.49;46.92;100518.44;5589302;31;33960;-64
2022/05/02 07:43:18;;;;;;;5.20;2.80;;;;;;;19.38;47.74;100516.44;5589161;31;32976;-64
2022/05/02 07:46:32;;;;;;;4.97;2.83;;;;;;;19.42;48.09;100514.13;5589914;31;34224;-64
2022/05/02 07:49:36;;;;;;;3.35;2.10;;;;;;;19.44;48.72;100510.22;5590350;31;34087;-64
2022/05/02 07:52:40;;;;;;;3.67;2.20;;;;;;;20.03;45.09;100510.59;5589578;31;32861;-65
2022/05/02 07:55:47;;;;;;;3.08;2.20;;;;;;;20.59;45.26;100500.31;5589986;31;34021;-65
2022/05/02 07:58:54;;;;;;;5.95;2.20;;;;;;;21.34;42.26;100515.94;5589358;31;32345;-65
2022/05/02 08:01:57;;;;;;;4.18;2.70;;;;;;;21.13;42.50;100499.25;5589047;31;33285;-65
2022/05/02 08:05:00;;;;;;;4.65;2.30;;;;;;;21.67;40.47;100500.75;5589216;31;33077;-65
2022/05/02 08:08:18;;;;;;;3.10;2.08;;;;;;;21.77;40.04;100510.12;5588895;31;32496;-64
2022/05/02 08:11:52;;;;;;;4.72;1.90;;;;;;;21.21;40.67;100508.88;5589053;31;32457;-64
2022/05/02 08:15:22;;;;;;;2.55;1.77;;;;;;;20.43;42.88;100511.72;5560060;31;32499;-64
2022/05/02 08:18:50;;;;;;;5.45;2.05;;;;;;;19.89;44.77;100509.94;5588307;31;33552;-64
2022/05/02 08:27:15;;;;;;;4.93;2.10;;;;;;;19.77;47.50;100506.34;5589304;31;34560;-64
2022/05/02 08:29:25;;;;;;;4.97;2.25;;;;;;;19.35;46.10;100502.63;5588613;31;32778;-64
2022/05/02 08:32:46;;;;;;;7.78;2.20;;;;;;;19.64;46.50;100498.41;5589426;31;34158;-64
2022/05/02 08:36:06;;;;;;;3.40;2.00;;;;;;;19.50;44.95;100492.38;5588561;31;33703;-63
2022/05/02 08:39:15;;;;;;;3.22;1.83;;;;;;;19.01;46.47;100493.22;5589322;31;33952;-64
2022/05/02 08:42:47;;;;;;;3.50;1.90;;;;;;;19.57;45.49;100490.41;5589457;31;33836;-64
2022/05/02 08:46:21;;;;;;;4.82;2.12;;;;;;;20.02;45.00;100485.53;5575777;31;34140;-64
2022/05/02 08:50:03;;;;;;;3.17;1.70;;;;;;;20.21;45.40;100492.53;5589276;31;34938;-64
2022/05/02 08:53:37;;;;;;;4.95;1.65;;;;;;;20.32;44.75;100485.59;5558730;31;32630;-63
2022/05/02 08:57:01;;;;;;;2.15;1.50;;;;;;;20.25;42.78;100482.94;5589461;31;34619;-63
2022/05/02 09:00:11;;;;;;;2.30;1.70;;;;;;;20.07;41.88;100479.47;5588675;31;33241;-63
2022/05/02 09:03:48;;;;;;;2.85;1.42;;;;;;;20.06;44.23;100483.19;5588925;31;32519;-63
2022/05/02 09:07:13;;;;;;;2.17;1.90;;;;;;;20.18;44.73;100476.00;5588788;31;32563;-64
2022/05/02 09:10:24;;;;;;;5.10;1.80;;;;;;;20.23;45.19;100485.06;5588912;31;33022;-64
2022/05/02 09:13:45;;;;;;;4.30;1.65;;;;;;;20.46;43.15;100480.81;5589340;31;34148;-64
2022/05/02 09:17:26;;;;;;;3.62;1.60;;;;;;;20.43;42.63;100471.31;5588590;31;32260;-63
2022/05/02 09:20:57;;;;;;;3.17;1.67;;;;;;;20.34;42.60;100472.69;5589157;31;33987;-63
2022/05/02 09:24:15;;;;;;;3.53;1.70;;;;;;;20.39;43.31;100472.81;5588165;31;32458;-64
2022/05/02 09:27:38;;;;;;;5.40;2.20;;;;;;;20.36;44.67;100468.72;5587838;31;34331;-63
2022/05/02 09:30:56;;;;;;;1.67;1.40;;;;;;;19.88;44.17;100467.91;5588426;31;33324;-64
2022/05/02 09:34:18;;;;;;;2.42;1.60;;;;;;;19.81;44.06;100464.44;5588216;31;32388;-64
2022/05/02 09:37:27;;;;;;;3.55;1.85;;;;;;;19.96;43.70;100464.88;5588259;31;33755;-63
2022/05/02 09:40:35;;;;;;;2.10;1.37;;;;;;;19.57;44.89;100460.81;5588203;31;32480;-64
2022/05/02 09:51:58;;;;;;;3.08;2.17;;;;;;;19.99;44.68;100460.94;5555272;32;34068;-64
2022/05/02 09:58:43;;;;;;;2.37;1.70;;;;;;;19.64;44.72;100445.41;5569272;32;34019;-63
2022/05/02 10:01:49;;;;;;;2.70;1.45;;;;;;;19.78;46.12;100446.06;5554855;32;33104;-64
2022/05/02 10:05:37;;;;;;;4.80;1.33;;;;;;;19.58;43.96;100448.19;5567915;32;33209;-64
2022/05/02 10:09:00;;;;;;;2.53;1.45;;;;;;;19.30;44.81;100440.59;5568966;32;35012;-64
2022/05/02 10:12:12;;;;;;;4.22;1.45;;;;;;;19.59;44.61;100431.81;5554688;32;33149;-64
2022/05/02 10:15:23;;;;;;;4.30;2.60;;;;;;;19.68;43.54;100435.00;5568806;32;34580;-64
2022/05/02 10:18:29;;;;;;;2.12;1.65;;;;;;;20.11;43.18;100422.22;5554884;32;32864;-64
2022/05/02 10:22:16;;;;;;;2.45;1.70;;;;;;;20.62;41.73;100421.66;5554872;32;34627;-65
2022/05/02 10:25:38;;;;;;;1.70;1.27;;;;;;;20.88;41.16;100425.81;5568795;32;34187;-64
2022/05/02 10:28:50;;;;;;;3.42;1.83;;;;;;;20.50;41.66;100415.44;5555015;32;32366;-64
2022/05/02 10:32:04;;;;;;;4.60;2.30;;;;;;;21.41;41.83;100411.34;5554498;32;33766;-64
2022/05/02 10:35:11;;;;;;;2.95;1.90;;;;;;;21.73;41.49;100409.87;5568345;32;34535;-65
2022/05/02 10:38:25;;;;;;;3.85;1.83;;;;;;;21.44;40.45;100409.03;5554641;32;32560;-65
2022/05/02 10:41:28;;;;;;;5.72;1.87;;;;;;;21.91;39.49;100408.88;5554219;32;33684;-65
2022/05/02 10:44:47;;;;;;;2.87;1.80;;;;;;;22.61;37.96;100400.41;5568413;32;34108;-64
2022/05/02 10:47:53;;;;;;;5.80;2.00;;;;;;;22.77;37.15;100407.72;5568151;32;34549;-65
2022/05/02 10:51:09;;;;;;;3.25;1.50;;;;;;;24.16;34.61;100406.31;5568215;32;34649;-65
2022/05/02 10:54:31;;;;;;;7.15;1.83;;;;;;;24.08;35.78;100384.25;5554312;32;32371;-65
2022/05/02 10:57:45;;;;;;;5.97;1.90;;;;;;;25.35;32.43;100395.00;5568258;32;33984;-65
2022/05/02 11:01:16;;;;;;;1.95;1.25;;;;;;;26.37;31.19;100396.16;5553865;32;32635;-66
2022/05/02 11:04:34;;;;;;;3.62;1.48;;;;;;;26.59;28.68;100401.31;5567922;32;33939;-66
2022/05/02 11:07:36;;;;;;;2.83;1.37;;;;;;;29.33;25.03;100393.25;5553382;32;32664;-66
2022/05/02 11:10:47;;;;;;;1.70;1.10;;;;;;;32.63;21.99;100394.31;5553594;32;32546;-66
2022/05/02 11:14:00;;;;;;;1.23;0.93;;;;;;;30.96;22.35;100390.53;5540732;32;32479;-66
2022/05/02 11:17:09;;;;;;;2.30;1.10;;;;;;;33.69;20.24;100387.88;5570533;32;34270;-66
2022/05/02 11:24:10;;;;;;;2.35;1.48;;;;;;;32.42;19.86;100380.28;5570731;32;34128;-65
2022/05/02 11:27:50;;;;;;;3.55;1.40;;;;;;;32.56;20.74;100364.53;5557025;32;33209;-66
2022/05/02 11:31:21;;;;;;;5.82;1.30;;;;;;;30.78;22.44;100379.66;5570625;32;34411;-65
2022/05/02 11:34:45;;;;;;;2.08;1.20;;;;;;;31.05;21.78;100376.97;5556879;32;35849;-65
2022/05/02 11:38:14;;;;;;;3.87;1.30;;;;;;;33.68;18.83;100361.47;5543724;32;33165;-65
2022/05/02 11:41:19;;;;;;;2.17;1.10;;;;;;;32.44;19.84;100357.97;5570756;32;34212;-65
2022/05/02 11:44:29;;;;;;;2.35;1.40;;;;;;;31.36;21.18;100363.47;5556704;32;32488;-66
2022/05/02 11:47:57;;;;;;;3.40;1.33;;;;;;;29.92;21.84;100359.16;5588355;31;32407;-65
2022/05/02 11:51:04;;;;;;;1.98;1.27;;;;;;;29.61;22.27;100351.34;5589275;31;32362;-65
2022/05/02 11:54:28;;;;;;;1.60;1.23;;;;;;;28.41;23.79;100351.53;5589141;31;32866;-66
2022/05/02 11:57:37;;;;;;;1.40;1.30;;;;;;;27.25;26.07;100350.31;5588839;31;33509;-65
2022/05/02 12:00:52;;;;;;;3.22;1.15;;;;;;;26.29;26.89;100348.53;5589159;31;33674;-65
2022/05/02 12:04:00;;;;;;;11.30;1.45;;;;;;;25.96;27.81;100349.84;5589110;31;33489;-65
2022/05/02 12:07:08;;;;;;;1.97;1.40;;;;;;;26.86;26.66;100336.53;5588814;31;32369;-65
2022/05/02 12:10:14;;;;;;;1.58;1.10;;;;;;;26.35;28.95;100338.47;5589745;31;34638;-65
2022/05/02 12:13:19;;;;;;;3.25;1.37;;;;;;;26.85;27.34;100331.34;5576073;31;32570;-65
2022/05/02 12:16:22;;;;;;;2.95;1.52;;;;;;;28.84;24.48;100322.50;5588807;31;33043;-65
2022/05/02 12:19:32;;;;;;;2.45;1.35;;;;;;;32.77;20.75;100320.91;5589722;31;33956;-65
2022/05/02 12:22:35;;;;;;;1.65;1.27;;;;;;;35.39;17.40;100316.19;5589689;31;34052;-65
2022/05/02 12:25:54;;;;;;;1.60;1.15;;;;;;;33.48;18.78;100313.34;5588837;31;32348;-65
2022/05/02 12:29:03;;;;;;;4.62;1.83;;;;;;;29.20;22.07;100307.28;5588178;31;32721;-67
2022/05/02 12:32:07;;;;;;;3.67;1.50;;;;;;;28.66;22.66;100298.63;5588770;31;32444;-66
2022/05/02 12:35:11;;;;;;;2.28;1.45;;;;;;;31.51;20.54;100297.34;5588914;31;33797;-66
2022/05/02 12:38:16;;;;;;;2.85;1.27;;;;;;;34.96;16.22;100299.03;5589741;31;34292;-66
2022/05/02 12:41:25;;;;;;;1.62;1.30;;;;;;;36.49;14.81;100298.19;5588816;31;34134;-66
2022/05/02 12:44:42;;;;;;;2.05;1.27;;;;;;;35.67;16.45;100292.47;5588831;31;32687;-66
2022/05/02 12:47:51;;;;;;;2.15;1.45;;;;;;;33.86;17.66;100292.34;5590056;31;33966;-66
2022/05/02 12:50:54;;;;;;;2.95;1.33;;;;;;;33.82;17.59;100280.38;5588893;31;32466;-67
2022/05/02 12:54:18;;;;;;;3.05;1.55;;;;;;;34.36;17.23;100270.59;5588893;31;33353;-66
2022/05/02 13:01:05;;;;;;;5.55;1.55;;;;;;;30.23;21.24;100275.44;5588242;31;32578;-65
2022/05/02 13:04:17;;;;;;;2.00;1.70;;;;;;;28.08;24.31;100261.19;5588383;31;32544;-65
2022/05/02 13:07:21;;;;;;;2.12;1.30;;;;;;;26.89;25.66;100259.75;5588400;31;33733;-65
2022/05/02 13:10:25;;;;;;;2.35;1.30;;;;;;;26.59;26.47;100254.37;5588266;31;32856;-65
2022/05/02 13:13:39;;;;;;;5.40;2.03;;;;;;;25.60;27.29;100246.81;5588483;31;32475;-65
2022/05/02 13:16:47;;;;;;;6.05;1.62;;;;;;;25.38;27.88;100236.94;5588381;31;33019;-65
2022/05/02 13:19:51;;;;;;;1.62;1.40;;;;;;;24.13;30.04;100243.34;5588389;31;32631;-66
2022/05/02 13:22:59;;;;;;;2.62;1.60;;;;;;;23.35;32.18;100240.19;5588147;31;34540;-65
2022/05/02 13:26:34;;;;;;;3.78;1.40;;;;;;;24.14;30.52;100242.28;5588668;31;33018;-65
2022/05/02 13:29:57;;;;;;;2.50;1.50;;;;;;;23.98;31.28;100240.50;5587893;31;33475;-65
2022/05/02 13:33:06;;;;;;;3.20;1.70;;;;;;;23.66;31.93;100235.91;5588595;31;34318;-64
2022/05/02 13:36:09;;;;;;;2.27;1.53;;;;;;;24.80;29.56;100232.66;5587891;31;33043;-64
2022/05/02 13:39:22;;;;;;;4.12;1.60;;;;;;;25.96;27.86;100230.22;5586661;31;32508;-65
2022/05/02 13:43:11;;;;;;;14.90;1.62;;;;;;;28.44;24.82;100225.44;5587961;31;32725;-65
2022/05/02 13:46:20;;;;;;;1.73;1.40;;;;;;;30.91;22.00;100226.25;5586314;31;34723;-66
2022/05/02 13:50:12;;;;;;;2.22;1.48;;;;;;;29.29;22.91;100218.09;5588589;31;34198;-65
2022/05/02 13:53:18;;;;;;;3.42;1.65;;;;;;;29.98;22.55;100221.16;5588072;31;33874;-65
2022/05/02 13:57:13;;;;;;;4.53;1.40;;;;;;;32.55;19.95;100211.03;5587642;31;33923;-65
2022/05/02 14:03:43;;;;;;;2.80;1.50;;;;;;;32.34;19.74;100205.28;5587248;31;32857;-65
2022/05/02 14:07:11;;;;;;;2.28;1.40;;;;;;;35.49;17.69;100213.69;5587157;31;32698;-64
2022/05/02 14:10:14;;;;;;;1.85;1.23;;;;;;;32.97;18.32;100207.63;5588364;31;34004;-65
2022/05/02 14:13:17;;;;;;;23.17;1.98;;;;;;;34.19;16.99;100206.47;5586927;31;34600;-65
2022/05/02 14:16:20;;;;;;;2.50;1.17;;;;;;;35.68;16.99;100207.75;5588409;31;33947;-65
2022/05/02 14:19:25;;;;;;;1.50;1.00;;;;;;;32.95;18.69;100209.09;5587858;31;34272;-65
2022/05/02 14:22:37;;;;;;;2.22;1.30;;;;;;;31.57;18.75;100199.31;5586638;31;32917;-65
2022/05/02 14:25:42;;;;;;;1.95;1.20;;;;;;;30.76;19.81;100195.63;5587838;31;34735;-65
2022/05/02 14:28:49;;;;;;;2.12;1.20;;;;;;;31.02;20.73;100200.28;5587291;31;32423;-65
2022/05/02 14:32:02;;;;;;;2.67;1.27;;;;;;;30.15;20.40;100192.13;5587619;31;34347;-64
2022/05/02 14:35:07;;;;;;;1.62;1.10;;;;;;;29.17;23.02;100187.66;5586678;31;32796;-65
2022/05/02 14:38:13;;;;;;;2.58;1.20;;;;;;;27.18;23.38;100191.81;5586324;31;32646;-64
2022/05/02 14:41:18;;;;;;;2.08;1.33;;;;;;;26.51;25.32;100190.47;5587297;31;34300;-64
2022/05/02 14:44:26;;;;;;;2.58;1.48;;;;;;;26.04;26.11;100193.53;5586860;31;32340;-66
2022/05/02 14:47:30;;;;;;;3.47;1.23;;;;;;;26.15;25.64;100186.16;5587138;31;34354;-65
2022/05/02 14:50:37;;;;;;;25.42;1.95;;;;;;;25.95;25.09;100181.56;5587234;31;32737;-65
2022/05/02 14:53:44;;;;;;;3.12;1.12;;;;;;;26.13;26.17;100188.34;5589137;31;32760;-65
2022/05/02 14:56:49;;;;;;;3.47;1.15;;;;;;;25.70;27.21;100187.03;5588793;31;33276;-65
2022/05/02 14:59:58;;;;;;;7.45;1.58;;;;;;;24.57;28.15;100186.97;5588172;31;32778;-65
2022/05/02 15:03:04;;;;;;;3.92;1.50;;;;;;;24.22;28.62;100201.16;5589915;31;33903;-65
2022/05/02 15:06:10;;;;;;;2.65;1.48;;;;;;;23.74;30.69;100202.94;5588872;31;34614;-65
2022/05/02 15:13:09;;;;;;;2.53;1.50;;;;;;;21.79;34.44;100202.84;5589023;31;34065;-65
2022/05/02 15:16:30;;;;;;;1.90;1.12;;;;;;;21.52;35.72;100218.88;5588966;31;35242;-65
2022/05/02 15:20:05;;;;;;;3.22;1.50;;;;;;;20.89;35.92;100210.88;5588227;31;34137;-64
2022/05/02 15:23:11;;;;;;;6.32;1.33;;;;;;;20.97;36.66;100208.62;5588297;31;32720;-65
2022/05/02 15:26:14;;;;;;;5.68;1.80;;;;;;;21.03;37.26;100204.16;5589927;31;34210;-65
2022/05/02 15:36:39;;;;;;;3.53;1.58;;;;;;;20.85;38.59;100207.03;5588204;31;33046;-65
2022/05/02 15:39:42;;;;;;;2.65;1.48;;;;;;;20.71;40.15;100206.50;5589695;31;34428;-65